Time;durP1;ratioP1;P1;durP2;ratioP2;P2;SDS_P1;SDS_P2;PMS_P1;PMS_P2;Temp;Humidity;BMP_temperature;BMP_pressure;BME280_temperature;BME280_humidity;BME280_pressure;Samples;Min_cycle;Max_cycle;Signal;HPM_P1;HPM_P2
2021/10/02 00:35:15;;;;;;;3.60;3.30;;;;;;;;;;4992372;28;20479;-82
2021/10/02 00:38:06;;;;;;;3.10;2.70;;;;;;;;;;5001941;28;21203;-84
2021/10/02 00:45:56;;;;;;;3.73;2.80;;;;;;;;;;4955432;28;20460;-84
2021/10/02 00:48:23;;;;;;;5.40;3.10;;;;;;;;;;4961712;28;20470;-82
2021/10/02 00:50:51;;;;;;;3.60;2.77;;;;;;;;;;4954116;29;20457;-82
2021/10/02 00:53:19;;;;;;;3.47;2.90;;;;;;;;;;4962134;28;20533;-82
2021/10/02 00:55:46;;;;;;;3.07;2.70;;;;;;;;;;4969196;28;20466;-84
2021/10/02 00:58:13;;;;;;;3.20;2.60;;;;;;;;;;4966260;28;20878;-81
2021/10/02 01:00:45;;;;;;;4.00;2.97;;;;;;;;;;4967173;28;20851;-83
2021/10/02 01:03:17;;;;;;;4.43;2.90;;;;;;;;;;4967861;28;21072;-84
2021/10/02 01:05:59;;;;;;;2.80;2.13;;;;;;;;;;4971089;28;20542;-84
2021/10/02 01:08:36;;;;;;;3.13;2.60;;;;;;;;;;4955730;28;20457;-85
2021/10/02 01:11:13;;;;;;;3.20;2.20;;;;;;;;;;4954107;29;20445;-82
2021/10/02 01:13:43;;;;;;;3.70;2.50;;;;;;;;;;4962895;28;21011;-83
2021/10/02 01:16:13;;;;;;;2.77;2.40;;;;;;;;;;4996239;28;20460;-83
2021/10/02 01:18:44;;;;;;;2.87;2.17;;;;;;;;;;4998225;28;20538;-83
2021/10/02 01:21:22;;;;;;;4.77;2.67;;;;;;;;;;5001344;28;20959;-82
2021/10/02 01:24:01;;;;;;;3.47;2.37;;;;;;;;;;5012312;28;20496;-83
2021/10/02 01:26:35;;;;;;;4.40;2.43;;;;;;;;;;5010390;28;20490;-81
2021/10/02 01:29:07;;;;;;;3.27;2.30;;;;;;;;;;5012080;28;20442;-84
2021/10/02 01:31:38;;;;;;;2.30;1.83;;;;;;;;;;5010275;28;20776;-85
2021/10/02 01:34:11;;;;;;;2.40;1.87;;;;;;;;;;5014262;28;20960;-81
2021/10/02 01:36:46;;;;;;;2.13;1.90;;;;;;;;;;5012641;28;20550;-84
2021/10/02 01:47:23;;;;;;;2.53;1.93;;;;;;;;;;4990658;28;20490;-82
2021/10/02 01:49:52;;;;;;;3.87;2.37;;;;;;;;;;4982768;28;20449;-83
2021/10/02 01:52:21;;;;;;;2.93;2.07;;;;;;;;;;4991993;28;20469;-84
2021/10/02 01:54:49;;;;;;;3.67;2.20;;;;;;;;;;5002497;28;20471;-82
2021/10/02 01:57:16;;;;;;;3.13;2.20;;;;;;;;;;4997702;28;20488;-80
2021/10/02 01:59:45;;;;;;;2.70;2.17;;;;;;;;;;5006652;28;20477;-83
2021/10/02 02:02:13;;;;;;;2.30;2.10;;;;;;;;;;5010082;28;20468;-83
2021/10/02 02:04:41;;;;;;;2.40;2.20;;;;;;;;;;4998202;28;20944;-83
2021/10/02 02:07:09;;;;;;;3.13;2.30;;;;;;;;;;4978238;28;20979;-83
2021/10/02 02:09:38;;;;;;;2.30;2.10;;;;;;;;;;5010689;28;20816;-85
2021/10/02 02:12:07;;;;;;;2.27;2.07;;;;;;;;;;5006068;28;20541;-81
2021/10/02 02:14:35;;;;;;;3.27;2.10;;;;;;;;;;4997062;28;20463;-85
2021/10/02 02:17:05;;;;;;;2.87;2.00;;;;;;;;;;4991121;28;20478;-82
2021/10/02 02:19:32;;;;;;;2.20;1.80;;;;;;;;;;4994319;28;20469;-82
2021/10/02 02:22:00;;;;;;;4.17;2.77;;;;;;;;;;4991973;28;20461;-84
2021/10/02 02:24:27;;;;;;;2.50;1.90;;;;;;;;;;4992183;28;20460;-80
2021/10/02 02:26:55;;;;;;;4.23;2.10;;;;;;;;;;4987189;28;20457;-81
2021/10/02 02:29:22;;;;;;;4.33;2.40;;;;;;;;;;4998854;28;20446;-83
2021/10/02 02:31:50;;;;;;;2.50;2.07;;;;;;;;;;5000483;28;20472;-83
2021/10/02 02:34:18;;;;;;;2.27;2.07;;;;;;;;;;4990995;28;20447;-84
2021/10/02 02:36:45;;;;;;;3.40;3.10;;;;;;;;;;4994225;28;20833;-84
2021/10/02 02:39:13;;;;;;;2.20;2.00;;;;;;;;;;4991886;28;20441;-82
2021/10/02 02:41:40;;;;;;;2.33;2.13;;;;;;;;;;4994495;28;20941;-83
2021/10/02 02:44:07;;;;;;;2.50;1.80;;;;;;;;;;5000420;28;20447;-85
2021/10/02 02:46:36;;;;;;;2.40;2.10;;;;;;;;;;4999916;28;20456;-82
2021/10/02 02:49:05;;;;;;;2.77;2.33;;;;;;;;;;4995164;28;20446;-83
2021/10/02 02:51:38;;;;;;;2.50;2.17;;;;;;;;;;4995352;28;20447;-80
2021/10/02 02:54:11;;;;;;;2.60;1.90;;;;;;;;;;5008601;28;20489;-82
2021/10/02 02:56:41;;;;;;;2.73;2.50;;;;;;;;;;5014486;28;20847;-85
2021/10/02 02:59:12;;;;;;;2.20;2.00;;;;;;;;;;4999774;28;20492;-83
2021/10/02 03:01:41;;;;;;;2.10;1.90;;;;;;;;;;4997807;28;20471;-82
2021/10/02 03:04:11;;;;;;;2.90;2.40;;;;;;;;;;4977917;28;20463;-83
2021/10/02 03:06:43;;;;;;;3.43;2.87;;;;;;;;;;4999064;28;20455;-83
2021/10/02 03:09:11;;;;;;;2.47;2.17;;;;;;;;;;4988635;28;20459;-81
2021/10/02 03:11:39;;;;;;;4.40;2.70;;;;;;;;;;5011067;28;20494;-81
2021/10/02 03:14:06;;;;;;;2.80;2.30;;;;;;;;;;5004513;28;20476;-84
2021/10/02 03:16:35;;;;;;;3.40;2.60;;;;;;;;;;5000967;28;20435;-81
2021/10/02 03:19:03;;;;;;;3.33;2.30;;;;;;;;;;5009901;28;20483;-85
2021/10/02 03:21:30;;;;;;;3.07;2.33;;;;;;;;;;5012858;28;20479;-85
2021/10/02 03:24:02;;;;;;;2.57;2.20;;;;;;;;;;4997175;28;20455;-81
2021/10/02 03:26:30;;;;;;;3.00;2.70;;;;;;;;;;5013244;28;20537;-83
2021/10/02 03:28:58;;;;;;;5.23;2.70;;;;;;;;;;5014190;28;20469;-82
2021/10/02 03:31:25;;;;;;;2.50;2.23;;;;;;;;;;5014765;28;20584;-80
2021/10/02 03:33:53;;;;;;;3.77;2.57;;;;;;;;;;5016219;28;20472;-82
2021/10/02 03:36:20;;;;;;;3.77;2.20;;;;;;;;;;5005108;28;20479;-81
2021/10/02 03:38:47;;;;;;;2.80;2.37;;;;;;;;;;5000483;28;20502;-84
2021/10/02 03:41:16;;;;;;;3.37;2.87;;;;;;;;;;5011249;28;20946;-84
2021/10/02 03:43:43;;;;;;;3.20;2.40;;;;;;;;;;5009597;28;20847;-83
2021/10/02 03:46:10;;;;;;;3.90;2.70;;;;;;;;;;5013990;28;20441;-84
2021/10/02 03:48:37;;;;;;;3.33;2.57;;;;;;;;;;5012720;28;20825;-83
2021/10/02 03:51:04;;;;;;;5.13;3.00;;;;;;;;;;5014202;28;20948;-80
2021/10/02 03:53:32;;;;;;;4.13;2.90;;;;;;;;;;5009159;28;20504;-81
2021/10/02 03:56:00;;;;;;;2.80;2.50;;;;;;;;;;5013079;28;20495;-82
2021/10/02 03:58:29;;;;;;;2.40;2.10;;;;;;;;;;5005394;28;20484;-83
2021/10/02 04:00:56;;;;;;;3.00;2.30;;;;;;;;;;4998441;28;20951;-83
2021/10/02 04:03:23;;;;;;;1.93;1.77;;;;;;;;;;4994232;28;20452;-82
2021/10/02 04:05:51;;;;;;;2.20;2.00;;;;;;;;;;4993787;28;20471;-81
2021/10/02 04:08:18;;;;;;;2.17;1.70;;;;;;;;;;4997246;28;20457;-84
2021/10/02 04:10:45;;;;;;;2.20;1.70;;;;;;;;;;4997392;28;20468;-80
2021/10/02 04:13:12;;;;;;;1.67;1.57;;;;;;;;;;5007345;28;20484;-81
2021/10/02 04:15:41;;;;;;;2.23;1.50;;;;;;;;;;4997486;28;20460;-84
2021/10/02 04:18:08;;;;;;;2.20;1.80;;;;;;;;;;5001926;28;20479;-82
2021/10/02 04:20:35;;;;;;;4.40;1.83;;;;;;;;;;5013217;28;20450;-83
2021/10/02 04:23:02;;;;;;;2.60;1.80;;;;;;;;;;5011529;28;20483;-85
2021/10/02 04:25:29;;;;;;;2.43;1.67;;;;;;;;;;5012960;28;20467;-83
2021/10/02 04:27:57;;;;;;;1.53;1.40;;;;;;;;;;5007607;28;20460;-82
2021/10/02 04:30:24;;;;;;;1.70;1.60;;;;;;;;;;4998523;28;20459;-81
2021/10/02 04:32:52;;;;;;;2.30;1.50;;;;;;;;;;4996308;28;20489;-82
2021/10/02 04:35:20;;;;;;;1.83;1.50;;;;;;;;;;5011015;28;20466;-81
2021/10/02 04:37:48;;;;;;;4.07;1.70;;;;;;;;;;5012388;28;20478;-83
2021/10/02 04:40:15;;;;;;;1.60;1.40;;;;;;;;;;5006475;28;20451;-83
2021/10/02 04:42:42;;;;;;;3.00;1.63;;;;;;;;;;4996418;28;20824;-80
2021/10/02 04:45:10;;;;;;;1.40;1.30;;;;;;;;;;5009963;28;20440;-82
2021/10/02 04:47:37;;;;;;;1.93;1.53;;;;;;;;;;4996240;28;20459;-83
2021/10/02 04:50:06;;;;;;;3.03;1.70;;;;;;;;;;4994930;28;20934;-83
2021/10/02 04:52:34;;;;;;;2.93;1.90;;;;;;;;;;5001749;28;20905;-82
2021/10/02 04:55:01;;;;;;;1.70;1.60;;;;;;;;;;5012149;28;20804;-84
2021/10/02 04:57:28;;;;;;;2.67;1.50;;;;;;;;;;5010625;28;20466;-82
2021/10/02 04:59:55;;;;;;;4.50;1.87;;;;;;;;;;5011703;28;20455;-83
2021/10/02 05:02:22;;;;;;;1.53;1.30;;;;;;;;;;4996953;28;20967;-81
2021/10/02 05:04:49;;;;;;;1.70;1.60;;;;;;;;;;4998491;28;20463;-79
2021/10/02 05:07:18;;;;;;;1.80;1.40;;;;;;;;;;5010722;28;20446;-81
2021/10/02 05:09:45;;;;;;;1.77;1.67;;;;;;;;;;5010414;28;20474;-82
2021/10/02 05:12:12;;;;;;;2.00;1.50;;;;;;;;;;4995608;28;20810;-86
2021/10/02 05:14:40;;;;;;;2.17;1.80;;;;;;;;;;4994545;28;20463;-82
2021/10/02 05:17:10;;;;;;;2.43;2.10;;;;;;;;;;5003197;28;20933;-81
2021/10/02 05:19:38;;;;;;;3.00;1.90;;;;;;;;;;4998406;28;20479;-84
2021/10/02 05:22:05;;;;;;;2.17;1.80;;;;;;;;;;4998356;28;20945;-84
2021/10/02 05:24:36;;;;;;;2.00;1.87;;;;;;;;;;5010417;28;20827;-82
2021/10/02 05:27:06;;;;;;;4.97;1.77;;;;;;;;;;5012162;28;20522;-83
2021/10/02 05:29:33;;;;;;;4.47;1.63;;;;;;;;;;5003974;28;20840;-84
2021/10/02 05:32:00;;;;;;;2.90;2.20;;;;;;;;;;5010519;28;20487;-85
2021/10/02 05:34:27;;;;;;;1.73;1.63;;;;;;;;;;5002943;28;21054;-83
2021/10/02 05:36:55;;;;;;;3.13;2.17;;;;;;;;;;4994371;28;20448;-84
2021/10/02 05:39:22;;;;;;;2.70;1.90;;;;;;;;;;4995148;28;20485;-84
2021/10/02 05:41:50;;;;;;;3.87;2.30;;;;;;;;;;4998195;28;20436;-86
2021/10/02 05:44:17;;;;;;;2.83;1.90;;;;;;;;;;5005006;28;20440;-83
2021/10/02 05:46:45;;;;;;;2.80;2.33;;;;;;;;;;4994559;28;20797;-82
2021/10/02 05:49:12;;;;;;;3.07;2.33;;;;;;;;;;4992057;28;21111;-84
2021/10/02 05:51:39;;;;;;;2.27;1.97;;;;;;;;;;5005569;28;20450;-82
2021/10/02 05:54:08;;;;;;;3.60;1.83;;;;;;;;;;5012315;28;20475;-82
2021/10/02 05:56:35;;;;;;;2.80;2.03;;;;;;;;;;5007367;28;20463;-84
2021/10/02 05:59:03;;;;;;;1.70;1.53;;;;;;;;;;5012231;28;20488;-82
2021/10/02 06:01:31;;;;;;;2.83;1.70;;;;;;;;;;5006716;28;20947;-84
2021/10/02 06:03:58;;;;;;;1.73;1.60;;;;;;;;;;4995089;28;20478;-82
2021/10/02 06:06:25;;;;;;;1.67;1.57;;;;;;;;;;4993668;28;20539;-85
2021/10/02 06:08:52;;;;;;;2.97;1.67;;;;;;;;;;4991941;28;20448;-82
2021/10/02 06:11:19;;;;;;;1.73;1.47;;;;;;;;;;5005023;28;20948;-84
2021/10/02 06:13:48;;;;;;;2.53;1.97;;;;;;;;;;5008267;28;20476;-83
2021/10/02 06:16:17;;;;;;;2.40;1.53;;;;;;;;;;5003581;28;20482;-82
2021/10/02 06:18:44;;;;;;;2.80;2.07;;;;;;;;;;4996295;28;20487;-81
2021/10/02 06:21:14;;;;;;;2.40;2.07;;;;;;;;;;4998374;28;20459;-85
2021/10/02 06:23:41;;;;;;;2.60;1.63;;;;;;;;;;5010886;28;20463;-81
2021/10/02 06:26:08;;;;;;;1.97;1.87;;;;;;;;;;5008097;28;20841;-83
2021/10/02 06:28:36;;;;;;;1.90;1.50;;;;;;;;;;4993012;28;20823;-83
2021/10/02 06:31:03;;;;;;;2.73;1.53;;;;;;;;;;4977342;28;20456;-83
2021/10/02 06:33:32;;;;;;;1.73;1.60;;;;;;;;;;5000434;28;20468;-81
2021/10/02 06:36:00;;;;;;;1.87;1.73;;;;;;;;;;4997508;28;20805;-81
2021/10/02 06:38:27;;;;;;;1.73;1.63;;;;;;;;;;4996484;28;20476;-84
2021/10/02 06:40:54;;;;;;;1.93;1.67;;;;;;;;;;5000617;28;20801;-82
2021/10/02 06:43:22;;;;;;;1.93;1.73;;;;;;;;;;5004328;28;20831;-84
2021/10/02 06:45:51;;;;;;;1.70;1.60;;;;;;;;;;5009600;28;20454;-81
2021/10/02 06:48:18;;;;;;;2.17;1.70;;;;;;;;;;5003566;28;20511;-82
2021/10/02 06:50:47;;;;;;;2.13;1.73;;;;;;;;;;5000319;28;20456;-83
2021/10/02 06:53:14;;;;;;;2.40;1.87;;;;;;;;;;4996877;28;21055;-83
2021/10/02 06:55:41;;;;;;;2.03;1.83;;;;;;;;;;5001121;28;20999;-85
2021/10/02 06:58:09;;;;;;;2.10;1.90;;;;;;;;;;4998708;28;20459;-86
2021/10/02 07:00:36;;;;;;;2.77;2.10;;;;;;;;;;5010248;28;20456;-84
2021/10/02 07:03:03;;;;;;;6.17;2.40;;;;;;;;;;4998218;28;20479;-84
2021/10/02 07:05:31;;;;;;;2.70;2.00;;;;;;;;;;5000016;28;20843;-79
2021/10/02 07:07:59;;;;;;;2.50;2.30;;;;;;;;;;4989543;28;20792;-79
2021/10/02 07:10:26;;;;;;;2.13;1.90;;;;;;;;;;4994291;28;20461;-80
2021/10/02 07:12:54;;;;;;;2.10;1.90;;;;;;;;;;5007832;28;20482;-79
2021/10/02 07:15:22;;;;;;;2.40;2.20;;;;;;;;;;4993677;28;20552;-79
2021/10/02 07:17:49;;;;;;;3.63;1.80;;;;;;;;;;4993131;28;20468;-80
2021/10/02 07:20:17;;;;;;;2.40;1.60;;;;;;;;;;4986767;28;20492;-80
2021/10/02 07:22:45;;;;;;;2.30;2.00;;;;;;;;;;4990843;28;20486;-80
2021/10/02 07:25:15;;;;;;;2.53;1.97;;;;;;;;;;4991924;28;20498;-79
2021/10/02 07:27:42;;;;;;;1.70;1.47;;;;;;;;;;4997087;28;20469;-80
2021/10/02 07:30:10;;;;;;;3.83;2.20;;;;;;;;;;5004964;28;20461;-78
2021/10/02 07:32:38;;;;;;;1.97;1.73;;;;;;;;;;5012380;28;20560;-80
2021/10/02 07:35:06;;;;;;;1.90;1.67;;;;;;;;;;5014541;28;20466;-80
2021/10/02 07:37:33;;;;;;;1.90;1.70;;;;;;;;;;5016011;28;20443;-80
2021/10/02 07:40:01;;;;;;;2.40;1.80;;;;;;;;;;5007620;28;20490;-81
2021/10/02 07:42:30;;;;;;;2.77;1.80;;;;;;;;;;5012685;28;20488;-79
2021/10/02 07:45:00;;;;;;;2.20;2.00;;;;;;;;;;4999632;28;20430;-77
2021/10/02 07:47:28;;;;;;;2.23;1.53;;;;;;;;;;4998331;28;21357;-77
2021/10/02 07:49:55;;;;;;;2.03;1.93;;;;;;;;;;5004777;28;20561;-79
2021/10/02 07:52:23;;;;;;;1.70;1.60;;;;;;;;;;5011050;28;20553;-80
2021/10/02 07:54:52;;;;;;;2.10;1.90;;;;;;;;;;5012311;28;20471;-81
2021/10/02 07:57:19;;;;;;;1.83;1.73;;;;;;;;;;4989036;28;20465;-77
2021/10/02 07:59:48;;;;;;;2.00;1.90;;;;;;;;;;5013508;28;20493;-80
2021/10/02 08:02:18;;;;;;;2.20;2.00;;;;;;;;;;5010804;28;20466;-80
2021/10/02 08:04:46;;;;;;;3.33;2.60;;;;;;;;;;5009925;28;20466;-83
2021/10/02 08:07:14;;;;;;;3.10;2.37;;;;;;;;;;4997705;28;20466;-83
2021/10/02 08:09:42;;;;;;;2.90;2.50;;;;;;;;;;5003684;28;20932;-84
2021/10/02 08:12:09;;;;;;;2.77;2.40;;;;;;;;;;4988845;28;21114;-84
2021/10/02 08:14:38;;;;;;;3.27;2.43;;;;;;;;;;5012534;28;20525;-83
2021/10/02 08:17:08;;;;;;;4.00;2.30;;;;;;;;;;5010746;28;20460;-83
2021/10/02 08:19:36;;;;;;;2.40;2.20;;;;;;;;;;5002348;28;20517;-83
2021/10/02 08:22:07;;;;;;;2.20;1.90;;;;;;;;;;5007185;28;20436;-79
2021/10/02 08:24:35;;;;;;;2.67;2.00;;;;;;;;;;5002036;28;20556;-82
2021/10/02 08:27:03;;;;;;;2.87;2.00;;;;;;;;;;4995469;28;20444;-79
2021/10/02 08:29:31;;;;;;;2.93;2.17;;;;;;;;;;5009794;28;20455;-81
2021/10/02 08:31:58;;;;;;;2.20;2.10;;;;;;;;;;5011772;28;20439;-80
2021/10/02 08:34:27;;;;;;;2.20;1.80;;;;;;;;;;5010782;28;20435;-80
2021/10/02 08:36:54;;;;;;;2.07;1.87;;;;;;;;;;5007172;28;20440;-81
2021/10/02 08:39:22;;;;;;;2.50;2.23;;;;;;;;;;4998420;28;20486;-80
2021/10/02 08:41:50;;;;;;;2.53;2.33;;;;;;;;;;4994971;28;20468;-80
2021/10/02 08:44:18;;;;;;;2.20;2.00;;;;;;;;;;5012186;28;20511;-81
2021/10/02 08:46:46;;;;;;;2.47;2.27;;;;;;;;;;5011858;28;20512;-82
2021/10/02 08:49:21;;;;;;;2.30;2.10;;;;;;;;;;5003428;28;20878;-80
2021/10/02 08:51:50;;;;;;;2.40;2.07;;;;;;;;;;5007334;28;20455;-82
2021/10/02 08:54:19;;;;;;;3.63;2.37;;;;;;;;;;4998001;28;20511;-79
2021/10/02 08:56:46;;;;;;;3.47;2.20;;;;;;;;;;4990466;28;20455;-80
2021/10/02 08:59:14;;;;;;;2.37;2.00;;;;;;;;;;4992889;28;20976;-83
2021/10/02 09:01:42;;;;;;;2.83;2.40;;;;;;;;;;5007607;28;20467;-80
2021/10/02 09:04:09;;;;;;;2.70;2.10;;;;;;;;;;5012366;28;20460;-82
2021/10/02 09:06:37;;;;;;;2.10;1.90;;;;;;;;;;5004240;28;20466;-80
2021/10/02 09:09:06;;;;;;;2.27;2.07;;;;;;;;;;5013478;28;20474;-80
2021/10/02 09:11:33;;;;;;;2.20;2.00;;;;;;;;;;5008032;28;20583;-83
2021/10/02 09:14:00;;;;;;;2.37;2.17;;;;;;;;;;4998755;28;20482;-81
2021/10/02 09:16:28;;;;;;;2.90;2.37;;;;;;;;;;4997385;28;20438;-82
2021/10/02 09:18:55;;;;;;;3.67;2.00;;;;;;;;;;5003776;28;20471;-84
2021/10/02 09:21:22;;;;;;;2.73;2.03;;;;;;;;;;4992841;28;20542;-81
2021/10/02 09:23:50;;;;;;;2.43;2.23;;;;;;;;;;4992617;28;20460;-80
2021/10/02 09:26:39;;;;;;;3.63;2.10;;;;;;;;;;5007912;28;20482;-80
2021/10/02 09:29:07;;;;;;;2.90;2.20;;;;;;;;;;5011762;28;20549;-78
2021/10/02 09:31:34;;;;;;;3.50;2.40;;;;;;;;;;5002222;28;20452;-78
2021/10/02 09:34:02;;;;;;;3.60;2.50;;;;;;;;;;4994752;28;20456;-80
2021/10/02 09:36:29;;;;;;;3.10;2.50;;;;;;;;;;4993151;28;20429;-85
2021/10/02 09:38:56;;;;;;;3.13;2.20;;;;;;;;;;4994462;28;20483;-80
2021/10/02 09:41:23;;;;;;;2.50;2.10;;;;;;;;;;4992617;28;20968;-83
2021/10/02 09:43:51;;;;;;;2.57;2.23;;;;;;;;;;4993690;28;20478;-78
2021/10/02 09:46:32;;;;;;;1.90;1.80;;;;;;;;;;4992467;28;20444;-81
2021/10/02 09:49:00;;;;;;;1.97;1.80;;;;;;;;;;4992305;28;20941;-79
2021/10/02 09:51:39;;;;;;;2.10;1.90;;;;;;;;;;5004889;28;20479;-79
2021/10/02 09:54:06;;;;;;;2.20;2.00;;;;;;;;;;4987625;28;20423;-81
2021/10/02 09:56:34;;;;;;;3.00;1.90;;;;;;;;;;4995713;28;20549;-78
2021/10/02 09:59:01;;;;;;;3.63;1.70;;;;;;;;;;4991585;28;20787;-81
2021/10/02 10:01:31;;;;;;;2.33;2.10;;;;;;;;;;4993072;28;20911;-81
2021/10/02 10:03:58;;;;;;;3.00;1.83;;;;;;;;;;4996570;28;20481;-79
2021/10/02 10:06:26;;;;;;;1.73;1.63;;;;;;;;;;5010456;28;20459;-79
2021/10/02 10:09:08;;;;;;;1.50;1.40;;;;;;;;;;4997583;28;20445;-80
2021/10/02 10:11:44;;;;;;;1.30;1.20;;;;;;;;;;4986133;28;20436;-81
2021/10/02 10:14:18;;;;;;;1.70;1.60;;;;;;;;;;4993359;28;20458;-79
2021/10/02 10:16:47;;;;;;;1.80;1.50;;;;;;;;;;4984115;28;20435;-81
2021/10/02 10:19:18;;;;;;;1.77;1.23;;;;;;;;;;5009468;28;20471;-82
2021/10/02 10:21:45;;;;;;;1.23;1.10;;;;;;;;;;4995372;28;20437;-78
2021/10/02 10:24:20;;;;;;;1.30;1.10;;;;;;;;;;4993342;28;20478;-81
2021/10/02 10:26:47;;;;;;;1.40;1.10;;;;;;;;;;4991396;28;20441;-81
2021/10/02 10:29:15;;;;;;;1.30;1.07;;;;;;;;;;5008995;28;20882;-78
2021/10/02 10:31:42;;;;;;;1.80;1.20;;;;;;;;;;5009500;28;20472;-81
2021/10/02 10:34:11;;;;;;;1.70;1.10;;;;;;;;;;5010800;28;20474;-78
2021/10/02 10:36:39;;;;;;;1.50;1.20;;;;;;;;;;5002888;28;20438;-80
2021/10/02 10:39:08;;;;;;;1.60;1.40;;;;;;;;;;5003384;28;20889;-80
2021/10/02 10:41:37;;;;;;;1.27;1.17;;;;;;;;;;4994477;28;20485;-79
2021/10/02 10:44:29;;;;;;;1.90;1.13;;;;;;;;;;5006274;28;20490;-84
2021/10/02 10:47:00;;;;;;;1.10;1.00;;;;;;;;;;5009046;28;20466;-84
2021/10/02 10:49:31;;;;;;;1.13;1.03;;;;;;;;;;5009783;28;20433;-84
2021/10/02 10:52:01;;;;;;;1.60;1.13;;;;;;;;;;4992335;28;20937;-76
2021/10/02 10:54:29;;;;;;;1.27;1.10;;;;;;;;;;5000947;28;20451;-78
2021/10/02 10:56:56;;;;;;;1.37;1.13;;;;;;;;;;4993258;28;20537;-80
2021/10/02 10:59:23;;;;;;;1.67;1.10;;;;;;;;;;4993163;28;20447;-78
2021/10/02 11:01:51;;;;;;;1.43;1.30;;;;;;;;;;5008118;28;20419;-77
2021/10/02 11:04:33;;;;;;;1.37;1.10;;;;;;;;;;4994769;28;20462;-77
2021/10/02 11:07:02;;;;;;;1.37;1.20;;;;;;;;;;4997701;28;20462;-76
2021/10/02 11:09:37;;;;;;;1.47;1.30;;;;;;;;;;5011676;28;20834;-77
2021/10/02 11:12:05;;;;;;;2.10;1.00;;;;;;;;;;5007776;28;21597;-76
2021/10/02 11:14:47;;;;;;;1.73;0.90;;;;;;;;;;4987773;28;20940;-77
2021/10/02 11:17:15;;;;;;;1.80;1.30;;;;;;;;;;5010111;28;20556;-77
2021/10/02 11:19:42;;;;;;;1.77;1.00;;;;;;;;;;4997365;28;20466;-78
2021/10/02 11:22:30;;;;;;;1.10;0.90;;;;;;;;;;4995109;28;20452;-76
2021/10/02 11:24:57;;;;;;;1.13;1.03;;;;;;;;;;5013039;28;20864;-81
2021/10/02 11:27:25;;;;;;;1.40;1.20;;;;;;;;;;5013840;28;20457;-81
2021/10/02 11:29:53;;;;;;;1.40;1.30;;;;;;;;;;5012090;28;20443;-80
2021/10/02 11:32:22;;;;;;;1.60;1.07;;;;;;;;;;5013331;28;20478;-81
2021/10/02 11:35:04;;;;;;;2.13;1.03;;;;;;;;;;5014058;28;20437;-80
2021/10/02 11:37:42;;;;;;;1.40;1.20;;;;;;;;;;5006377;28;20852;-83
2021/10/02 11:40:24;;;;;;;1.40;1.20;;;;;;;;;;4977561;28;20495;-79
2021/10/02 11:43:06;;;;;;;1.80;1.40;;;;;;;;;;4985890;28;20489;-82
2021/10/02 11:45:34;;;;;;;2.03;1.40;;;;;;;;;;4987725;28;20450;-81
2021/10/02 11:48:11;;;;;;;2.20;1.47;;;;;;;;;;5011418;28;20447;-80
2021/10/02 11:50:38;;;;;;;1.77;1.43;;;;;;;;;;5013303;28;20792;-85
2021/10/02 11:53:20;;;;;;;2.57;1.40;;;;;;;;;;5010662;28;20473;-83
2021/10/02 11:55:51;;;;;;;2.07;1.33;;;;;;;;;;4985626;28;20467;-79
2021/10/02 11:58:18;;;;;;;3.10;1.53;;;;;;;;;;4990384;28;20462;-78
2021/10/02 12:00:48;;;;;;;1.70;1.60;;;;;;;;;;4997211;28;20502;-81
2021/10/02 12:03:15;;;;;;;1.70;1.27;;;;;;;;;;4987006;28;20453;-82
2021/10/02 12:05:43;;;;;;;1.83;1.40;;;;;;;;;;5011283;28;20417;-80
2021/10/02 12:08:11;;;;;;;1.93;1.50;;;;;;;;;;5012269;28;20495;-82
2021/10/02 12:13:33;;;;;;;1.97;1.40;;;;;;;;;;5125732;27;21032;-82
2021/10/02 12:16:02;;;;;;;2.17;1.80;;;;;;;;;;5121283;27;20510;-82
2021/10/02 12:18:44;;;;;;;1.50;1.37;;;;;;;;;;5133922;27;20433;-80
2021/10/02 12:21:12;;;;;;;1.87;1.40;;;;;;;;;;5131657;27;20461;-85
2021/10/02 12:23:50;;;;;;;3.30;1.67;;;;;;;;;;5128154;28;20542;-81
2021/10/02 12:26:17;;;;;;;2.00;1.40;;;;;;;;;;5132915;27;20863;-83
2021/10/02 12:28:46;;;;;;;2.90;1.50;;;;;;;;;;5127690;27;20921;-80
2021/10/02 12:31:13;;;;;;;3.17;1.40;;;;;;;;;;5127085;27;21001;-84
2021/10/02 12:33:40;;;;;;;2.50;1.90;;;;;;;;;;5125969;27;20545;-81
2021/10/02 12:36:08;;;;;;;3.00;1.57;;;;;;;;;;5126813;27;20463;-83
2021/10/02 12:38:42;;;;;;;3.67;1.70;;;;;;;;;;5121791;27;20449;-84
2021/10/02 12:41:10;;;;;;;1.70;1.50;;;;;;;;;;5118779;27;20941;-80
2021/10/02 12:43:37;;;;;;;2.00;1.70;;;;;;;;;;5122833;27;20468;-81
2021/10/02 12:46:18;;;;;;;1.50;1.40;;;;;;;;;;5131277;27;20434;-81
2021/10/02 12:48:45;;;;;;;1.93;1.50;;;;;;;;;;5125723;27;20434;-80
2021/10/02 12:51:13;;;;;;;1.73;1.63;;;;;;;;;;5115089;27;20458;-82
2021/10/02 12:53:40;;;;;;;2.17;1.57;;;;;;;;;;5122933;27;20996;-83
2021/10/02 12:56:22;;;;;;;1.77;1.40;;;;;;;;;;5128486;27;20456;-82
2021/10/02 12:58:49;;;;;;;2.40;1.87;;;;;;;;;;5126543;27;20456;-85
2021/10/02 13:01:19;;;;;;;2.00;1.70;;;;;;;;;;5119963;27;22612;-86
2021/10/02 13:03:46;;;;;;;1.60;1.40;;;;;;;;;;5114437;27;20487;-82
2021/10/02 13:06:13;;;;;;;1.60;1.40;;;;;;;;;;5128458;27;20437;-82
2021/10/02 13:08:40;;;;;;;1.87;1.67;;;;;;;;;;5138395;27;20457;-86
2021/10/02 13:11:07;;;;;;;2.00;1.60;;;;;;;;;;5120777;27;20457;-82
2021/10/02 13:13:38;;;;;;;4.20;1.67;;;;;;;;;;5129872;27;20484;-80
2021/10/02 13:16:06;;;;;;;3.23;1.93;;;;;;;;;;5126565;27;20870;-78
2021/10/02 13:18:34;;;;;;;4.03;1.50;;;;;;;;;;5146393;27;20753;-83
2021/10/02 13:21:03;;;;;;;2.10;1.77;;;;;;;;;;5121618;27;20446;-82
2021/10/02 13:23:32;;;;;;;3.00;1.63;;;;;;;;;;5115964;27;20469;-82
2021/10/02 13:26:00;;;;;;;1.70;1.60;;;;;;;;;;5116738;27;20534;-82
2021/10/02 13:28:28;;;;;;;3.33;1.77;;;;;;;;;;5109321;27;20529;-81
2021/10/02 13:30:56;;;;;;;2.83;1.67;;;;;;;;;;5118482;27;20946;-84
2021/10/02 13:33:24;;;;;;;1.83;1.40;;;;;;;;;;5114238;27;20514;-78
2021/10/02 13:35:54;;;;;;;2.50;1.40;;;;;;;;;;5103264;27;20443;-81
2021/10/02 13:38:31;;;;;;;2.13;1.43;;;;;;;;;;5114199;28;20795;-78
2021/10/02 13:41:00;;;;;;;1.60;1.37;;;;;;;;;;5106225;28;20462;-80
2021/10/02 13:43:27;;;;;;;2.30;1.77;;;;;;;;;;5114228;27;20525;-81
2021/10/02 13:45:55;;;;;;;3.60;1.70;;;;;;;;;;5116414;27;20433;-80
2021/10/02 13:48:25;;;;;;;2.90;1.80;;;;;;;;;;5102768;27;20471;-80
2021/10/02 13:50:54;;;;;;;1.73;1.50;;;;;;;;;;5117070;27;20453;-80
2021/10/02 13:53:22;;;;;;;2.63;2.03;;;;;;;;;;5129937;27;20489;-83
2021/10/02 13:55:49;;;;;;;2.70;1.60;;;;;;;;;;5111783;28;20462;-80
2021/10/02 13:58:16;;;;;;;1.90;1.70;;;;;;;;;;5095693;28;20467;-80
2021/10/02 14:00:43;;;;;;;2.07;1.60;;;;;;;;;;5109196;27;21869;-84
2021/10/02 14:03:11;;;;;;;1.40;1.20;;;;;;;;;;5105142;27;20492;-82
2021/10/02 14:05:39;;;;;;;1.70;1.60;;;;;;;;;;5099752;27;20452;-82
2021/10/02 14:08:07;;;;;;;3.77;1.60;;;;;;;;;;5099921;27;20465;-78
2021/10/02 14:10:34;;;;;;;2.57;2.10;;;;;;;;;;5109822;27;20458;-80
2021/10/02 14:13:02;;;;;;;1.90;1.57;;;;;;;;;;5113569;27;20477;-82
2021/10/02 14:15:29;;;;;;;1.73;1.50;;;;;;;;;;5108186;27;20469;-81
2021/10/02 14:17:56;;;;;;;2.70;1.77;;;;;;;;;;5117796;27;20785;-80
2021/10/02 14:20:23;;;;;;;2.57;1.73;;;;;;;;;;5109724;27;20459;-82
2021/10/02 14:22:51;;;;;;;2.60;1.70;;;;;;;;;;5106366;27;20474;-79
2021/10/02 14:25:19;;;;;;;2.90;1.63;;;;;;;;;;5123187;27;20962;-82
2021/10/02 14:27:47;;;;;;;2.80;1.77;;;;;;;;;;5108479;28;20461;-84
2021/10/02 14:30:14;;;;;;;1.90;1.33;;;;;;;;;;5109015;27;20449;-80
2021/10/02 14:32:41;;;;;;;2.23;1.70;;;;;;;;;;5117011;27;20484;-84
2021/10/02 14:35:09;;;;;;;2.77;1.60;;;;;;;;;;5109178;27;20450;-82
2021/10/02 14:37:36;;;;;;;2.57;1.63;;;;;;;;;;5110839;28;20446;-81
2021/10/02 14:40:05;;;;;;;3.13;2.20;;;;;;;;;;5107591;28;20454;-80
2021/10/02 14:42:34;;;;;;;4.27;2.10;;;;;;;;;;5108714;27;20463;-84
2021/10/02 14:45:01;;;;;;;2.03;1.70;;;;;;;;;;5108855;28;20465;-79
2021/10/02 14:47:43;;;;;;;2.30;1.90;;;;;;;;;;5109716;27;21866;-80
2021/10/02 14:50:12;;;;;;;3.13;1.50;;;;;;;;;;5094573;28;20446;-79
2021/10/02 14:52:40;;;;;;;2.43;1.90;;;;;;;;;;5082817;28;20876;-79
2021/10/02 14:55:09;;;;;;;3.17;1.87;;;;;;;;;;5071427;28;21245;-77
2021/10/02 14:57:37;;;;;;;3.23;2.00;;;;;;;;;;5089643;28;20931;-81
2021/10/02 15:00:06;;;;;;;2.00;1.70;;;;;;;;;;5066440;28;20444;-79
2021/10/02 15:02:34;;;;;;;1.90;1.50;;;;;;;;;;5075522;28;20470;-78
2021/10/02 15:05:01;;;;;;;2.73;2.13;;;;;;;;;;5095757;28;20410;-79
2021/10/02 15:07:29;;;;;;;3.80;1.70;;;;;;;;;;5083641;28;20448;-80
2021/10/02 15:09:57;;;;;;;1.53;1.30;;;;;;;;;;5089112;28;20806;-80
2021/10/02 15:12:24;;;;;;;2.73;1.80;;;;;;;;;;5070381;28;21056;-81
2021/10/02 15:14:54;;;;;;;3.50;1.60;;;;;;;;;;5065719;28;20538;-79
2021/10/02 15:17:21;;;;;;;2.53;1.50;;;;;;;;;;5082385;28;20449;-79
2021/10/02 15:19:49;;;;;;;2.13;1.93;;;;;;;;;;5088302;28;20539;-77
2021/10/02 15:22:17;;;;;;;3.20;1.80;;;;;;;;;;5121537;27;20469;-77
2021/10/02 15:24:45;;;;;;;3.00;1.90;;;;;;;;;;5121307;27;20468;-78
2021/10/02 15:27:16;;;;;;;2.40;2.10;;;;;;;;;;5118824;27;20452;-81
2021/10/02 15:29:44;;;;;;;2.00;1.80;;;;;;;;;;5111698;27;20433;-79
2021/10/02 15:32:13;;;;;;;4.93;1.80;;;;;;;;;;5110826;28;20782;-82
2021/10/02 15:34:41;;;;;;;3.33;1.73;;;;;;;;;;5113418;27;20440;-78
2021/10/02 15:37:08;;;;;;;2.20;1.70;;;;;;;;;;5117546;27;20460;-79
2021/10/02 15:39:35;;;;;;;4.50;1.50;;;;;;;;;;5094353;28;20465;-80
2021/10/02 15:42:05;;;;;;;5.03;1.60;;;;;;;;;;5111354;27;20420;-77
2021/10/02 15:44:34;;;;;;;2.00;1.80;;;;;;;;;;5111146;28;20447;-77